Roza A — TCRB7 — position and weather

sailwx.info

Track history (hours):
 
Tides and Currents Weather Stations Pressure Air Temp Water Temp Dewpoint Dewpoint Depression Visibility Wind Speed Wind Dir Waves Ship Positions

Roza A

Last reported at 2017-Apr-25 10:16 UTC. Time now 2017-Apr-27 12:58 UTC.
Position N 40°56' E 028°59'.

; draft 6.8 m.

Type: Ship (hazmat cat A). MMSI: 271001057.

Date/timePositionNaut miles runAvg speedWind from/ knotsBaromVisibWave heightAir tempDewpointWater temp
2017-Apr-25 10:16N 40°56' E 028°59'3 9.2
2017-Apr-25 09:59N 40°54' E 028°56'612.6
2017-Apr-25 09:30N 40°51' E 028°49'8 2.4
2017-Apr-25 06:22N 40°47' E 028°41'0 0.4
2017-Apr-25 06:00N 40°47' E 028°41'0 0.4
2017-Apr-25 05:30N 40°47' E 028°41'0 0.4
2017-Apr-25 05:00N 40°47' E 028°41'0 0.5
2017-Apr-25 04:30N 40°47' E 028°42'1 0.5
2017-Apr-25 03:32N 40°47' E 028°42'0 0.5
2017-Apr-25 03:20N 40°47' E 028°42'0 0.5
2017-Apr-25 03:00N 40°47' E 028°42'0 0.5
2017-Apr-25 02:30N 40°47' E 028°43'0 0.4
2017-Apr-25 02:00N 40°46' E 028°43'0 0.7
2017-Apr-25 01:21N 40°46' E 028°43'410.6
2017-Apr-25 00:57N 40°50' E 028°41'30 1.3
2017-Apr-24 01:22N 40°25' E 029°05'0 1.1
2017-Apr-24 00:56N 40°25' E 029°05'0 0.0
2017-Apr-24 00:26N 40°25' E 029°05'0 0.0
2017-Apr-23 23:56N 40°25' E 029°05'0 0.0
2017-Apr-23 23:26N 40°25' E 029°05'0 0.0
2017-Apr-23 22:50N 40°25' E 029°05'0 0.0
2017-Apr-23 22:20N 40°25' E 029°05'0 0.0
2017-Apr-23 21:44N 40°25' E 029°05'0 0.0
2017-Apr-23 21:26N 40°25' E 029°05'0 0.0
2017-Apr-23 20:56N 40°25' E 029°05'0 0.0
2017-Apr-23 20:26N 40°25' E 029°05'0 0.0
2017-Apr-23 19:44N 40°25' E 029°05'0 0.0
2017-Apr-23 19:26N 40°25' E 029°05'0 0.0
2017-Apr-23 18:56N 40°25' E 029°05'0 0.0
2017-Apr-23 18:20N 40°25' E 029°05'0 0.0
2017-Apr-23 17:56N 40°25' E 029°05'0 0.0
2017-Apr-23 17:08N 40°25' E 029°05'0 0.0
2017-Apr-23 16:56N 40°25' E 029°05'0 0.0
2017-Apr-23 16:26N 40°25' E 029°05'0 0.0
2017-Apr-23 15:56N 40°25' E 029°05'0 0.0
2017-Apr-23 15:26N 40°25' E 029°05'0 0.0
2017-Apr-23 14:56N 40°25' E 029°05'2 2.2
2017-Apr-23 13:57N 40°26' E 029°02'25112.4
2017-Apr-22 17:40N 37°59' E 024°40'214.3
2017-Apr-22 17:30N 37°56' E 024°38'714.4
2017-Apr-22 17:00N 37°50' E 024°36'714.5
2017-Apr-22 16:30N 37°43' E 024°34'47613.9
2017-Apr-21 06:10N 36°23' E 014°46'414.8
2017-Apr-21 05:54N 36°23' E 014°41'614.5
2017-Apr-21 05:29N 36°25' E 014°34'714.9
2017-Apr-21 05:00N 36°28' E 014°26'714.9
2017-Apr-21 04:30N 36°31' E 014°18'714.7
2017-Apr-21 04:00N 36°35' E 014°10'814.9
2017-Apr-21 03:30N 36°39' E 014°02'715.2
2017-Apr-21 03:01N 36°43' E 013°54'815.2
2017-Apr-21 02:30N 36°47' E 013°46'715.0
2017-Apr-21 02:00N 36°51' E 013°38'815.0
2017-Apr-21 01:29N 36°55' E 013°30'22315.1
2017-Apr-20 10:44N 38°55' E 009°31'314.5
2017-Apr-20 10:30N 38°56' E 009°27'814.9
2017-Apr-20 10:00N 39°00' E 009°19'815.0
2017-Apr-20 09:30N 39°05' E 009°11'612.3
2017-Apr-20 09:00N 39°10' E 009°06'3 6.6
2017-Apr-20 08:29N 39°13' E 009°04'0 0.0
2017-Apr-20 07:59N 39°13' E 009°04'0 0.0
2017-Apr-20 07:29N 39°13' E 009°04'0 0.0
2017-Apr-20 06:59N 39°13' E 009°04'0 0.0
2017-Apr-20 06:29N 39°13' E 009°04'0 0.0
2017-Apr-20 05:59N 39°13' E 009°04'0 0.0
2017-Apr-20 05:29N 39°13' E 009°04'0 0.0
2017-Apr-20 04:59N 39°13' E 009°04'0 0.0
2017-Apr-20 04:29N 39°13' E 009°04'0 0.0
2017-Apr-20 03:59N 39°13' E 009°04'0 0.0
2017-Apr-20 03:29N 39°13' E 009°04'0 0.0
2017-Apr-20 02:59N 39°13' E 009°04'0 0.0
2017-Apr-20 02:29N 39°13' E 009°04'0 0.0
2017-Apr-20 01:59N 39°13' E 009°04'0 0.0
2017-Apr-20 01:29N 39°13' E 009°04'0 0.0
2017-Apr-20 00:59N 39°13' E 009°04'0 0.0
2017-Apr-20 00:29N 39°13' E 009°04'0 0.0
2017-Apr-19 23:59N 39°13' E 009°04'0 0.0
2017-Apr-19 23:29N 39°13' E 009°04'0 0.0
2017-Apr-19 22:59N 39°13' E 009°04'0 0.0
2017-Apr-19 22:29N 39°13' E 009°04'0 0.0
2017-Apr-19 21:59N 39°13' E 009°04'0 0.0
2017-Apr-19 21:29N 39°13' E 009°04'0 0.0
2017-Apr-19 20:59N 39°13' E 009°04'0 0.0
2017-Apr-19 20:29N 39°13' E 009°04'0 0.0
2017-Apr-19 19:59N 39°13' E 009°04'0 0.0
2017-Apr-19 19:29N 39°13' E 009°04'0 0.0
2017-Apr-19 18:59N 39°13' E 009°04'0 0.0
2017-Apr-19 18:29N 39°13' E 009°04'0 0.0
2017-Apr-19 17:59N 39°13' E 009°04'0 0.0
2017-Apr-19 17:29N 39°13' E 009°04'2 3.5
2017-Apr-19 17:00N 39°12' E 009°06'4 8.0
2017-Apr-19 16:30N 39°08' E 009°07'3 5.3
2017-Apr-19 16:00N 39°06' E 009°09'0 0.9
2017-Apr-19 15:30N 39°05' E 009°09'0 0.8
2017-Apr-19 15:00N 39°05' E 009°09'1 1.9
2017-Apr-19 14:30N 39°04' E 009°09'1111.0
2017-Apr-19 13:30N 38°55' E 009°01'611.9
2017-Apr-19 13:00N 38°51' E 008°55'612.0
2017-Apr-19 12:29N 38°48' E 008°49'22712.7
2017-Apr-18 18:41N 37°48' E 004°10'213.8
2017-Apr-18 18:30N 37°47' E 004°07'713.9
2017-Apr-18 18:00N 37°45' E 003°59'714.1
2017-Apr-18 17:30N 37°43' E 003°50'714.0
2017-Apr-18 17:00N 37°41' E 003°42'713.9
2017-Apr-18 16:30N 37°39' E 003°33'1614.3
2017-Apr-18 15:23N 37°34' E 003°14'614.4
2017-Apr-18 14:59N 37°33' E 003°07'714.3
2017-Apr-18 14:30N 37°31' E 002°59'1413.8
2017-Apr-18 13:30N 37°27' E 002°42'713.5
2017-Apr-18 13:00N 37°25' E 002°34'713.6
2017-Apr-18 12:29N 37°24' E 002°25'713.9
2017-Apr-18 11:59N 37°22' E 002°17'814.5
2017-Apr-18 11:26N 37°19' E 002°07'714.8
2017-Apr-18 10:59N 37°18' E 001°59'914.9
2017-Apr-18 10:25N 37°15' E 001°49'614.8
2017-Apr-18 09:59N 37°13' E 001°41'715.1
2017-Apr-18 09:30N 37°12' E 001°32'915.2
2017-Apr-18 08:57N 37°09' E 001°22'715.2
2017-Apr-18 08:30N 37°07' E 001°14'815.4
2017-Apr-18 08:00N 37°05' E 001°05'1015.6
2017-Apr-18 07:21N 37°03' E 000°53'515.6
2017-Apr-18 07:00N 37°02' E 000°46'815.6
2017-Apr-18 06:30N 36°60' E 000°37'815.2
2017-Apr-18 06:00N 36°58' E 000°27'714.9
2017-Apr-18 05:30N 36°56' E 000°18'714.7
2017-Apr-18 05:00N 36°54' E 000°09'714.8
2017-Apr-18 04:30N 36°52' E 000°01'814.7
2017-Apr-18 03:59N 36°50' W 000°08'1314.8
2017-Apr-18 03:06N 36°46' W 000°24'215.0
2017-Apr-18 02:58N 36°45' W 000°27'714.9
2017-Apr-18 02:30N 36°43' W 000°35'715.0
2017-Apr-18 02:00N 36°41' W 000°44'815.0
2017-Apr-18 01:30N 36°40' W 000°53'815.1
2017-Apr-18 01:00N 36°38' W 001°02'4114.9
2017-Apr-17 22:13N 36°26' W 001°52'14615.6
2017-Apr-17 12:52N 36°02' W 004°50'615.7
2017-Apr-17 12:28N 36°01' W 004°58'715.6
2017-Apr-17 12:00N 35°60' W 005°06'715.0
2017-Apr-17 11:30N 35°59' W 005°15'714.9
2017-Apr-17 11:00N 35°57' W 005°25'510.5
2017-Apr-17 10:31N 35°54' W 005°30'0 0.6
2017-Apr-17 09:58N 35°54' W 005°29'0 0.0
2017-Apr-17 09:28N 35°54' W 005°29'0 0.0
2017-Apr-17 08:58N 35°54' W 005°29'0 0.0
2017-Apr-17 08:28N 35°54' W 005°29'0 0.0
2017-Apr-17 07:55N 35°54' W 005°29'0 0.0
2017-Apr-17 07:25N 35°54' W 005°29'0 0.0
2017-Apr-17 06:58N 35°54' W 005°29'0 0.0
2017-Apr-17 06:28N 35°54' W 005°29'0 0.0
2017-Apr-17 05:55N 35°54' W 005°29'0 0.0
2017-Apr-17 05:28N 35°54' W 005°29'0 0.0
2017-Apr-17 04:58N 35°54' W 005°29'0 0.0
2017-Apr-17 04:28N 35°54' W 005°29'0 0.0
2017-Apr-17 03:58N 35°54' W 005°29'0 0.0
2017-Apr-17 03:28N 35°54' W 005°29'0 0.0
2017-Apr-17 02:58N 35°54' W 005°29'0 0.0
2017-Apr-17 02:28N 35°54' W 005°29'0 0.0
2017-Apr-17 01:58N 35°54' W 005°29'0 0.0
2017-Apr-17 01:28N 35°54' W 005°29'0 0.0
2017-Apr-17 00:58N 35°54' W 005°29'0 0.0
2017-Apr-17 00:25N 35°54' W 005°29'0 0.0
2017-Apr-16 23:58N 35°54' W 005°29'0 0.0
2017-Apr-16 23:25N 35°54' W 005°29'0 0.0
2017-Apr-16 22:43N 35°54' W 005°29'0 0.0
2017-Apr-16 22:28N 35°54' W 005°29'0 0.0
2017-Apr-16 21:58N 35°54' W 005°29'0 0.0
2017-Apr-16 21:28N 35°54' W 005°29'0 0.0
2017-Apr-16 20:58N 35°54' W 005°29'0 0.0
2017-Apr-16 20:25N 35°54' W 005°29'0 0.0
2017-Apr-16 19:52N 35°54' W 005°29'0 0.0
2017-Apr-16 19:28N 35°54' W 005°29'0 0.0
2017-Apr-16 18:58N 35°54' W 005°29'0 0.0
2017-Apr-16 18:28N 35°54' W 005°29'0 0.0
2017-Apr-16 17:58N 35°54' W 005°29'0 0.0
2017-Apr-16 17:28N 35°54' W 005°29'0 0.8
2017-Apr-16 17:01N 35°54' W 005°30'3 5.9
2017-Apr-16 16:31N 35°54' W 005°33'3 5.7
2017-Apr-16 16:00N 35°52' W 005°36'0 0.3
2017-Apr-16 15:10N 35°52' W 005°36'0 0.0
2017-Apr-16 14:37N 35°52' W 005°36'0 0.1
2017-Apr-16 13:55N 35°52' W 005°36'0 0.1
2017-Apr-16 13:22N 35°52' W 005°36'0 0.0
2017-Apr-16 12:22N 35°52' W 005°36'0 0.1
2017-Apr-16 11:55N 35°52' W 005°36'0 0.1
2017-Apr-16 11:25N 35°52' W 005°36'0 0.0
2017-Apr-16 10:49N 35°52' W 005°36'0 0.1
2017-Apr-16 10:22N 35°52' W 005°36'0 0.2
2017-Apr-16 09:41N 35°52' W 005°36'0 0.9
2017-Apr-16 09:27N 35°52' W 005°36'2 5.2
2017-Apr-16 09:01N 35°54' W 005°34'4 7.8
2017-Apr-16 08:30N 35°54' W 005°39'711.7
2017-Apr-16 07:56N 35°53' W 005°47'5010.8
2017-Apr-16 03:18N 35°16' W 006°27'910.4
2017-Apr-16 02:28N 35°08' W 006°33'1310.6
2017-Apr-16 01:14N 34°56' W 006°39'410.2
2017-Apr-16 00:49N 34°53' W 006°42'410.0
2017-Apr-16 00:25N 34°50' W 006°45'410.4
2017-Apr-15 23:59N 34°46' W 006°48'1510.5
2017-Apr-15 22:34N 34°33' W 006°58'110.3
2017-Apr-15 22:30N 34°33' W 006°58'810.0
2017-Apr-15 21:40N 34°26' W 007°04'3 9.9
2017-Apr-15 21:23N 34°23' W 007°05'410.1
2017-Apr-15 21:00N 34°20' W 007°07'510.2
2017-Apr-15 20:30N 34°15' W 007°10'510.0
2017-Apr-15 20:00N 34°11' W 007°13'510.2
2017-Apr-15 19:30N 34°07' W 007°17'510.0
2017-Apr-15 19:00N 34°02' W 007°20'5 9.9
2017-Apr-15 18:29N 33°58' W 007°23'510.0
2017-Apr-15 18:00N 33°54' W 007°26'5 9.9
2017-Apr-15 17:30N 33°50' W 007°29'14 9.4
2017-Apr-15 16:00N 33°37' W 007°36'  
Track history (hours):
 
Tides and Currents Weather Stations Pressure Air Temp Water Temp Dewpoint Dewpoint Depression Visibility Wind Speed Wind Dir Waves Ship Positions

Roza A

Last reported at 2017-Apr-25 10:16 UTC. Time now 2017-Apr-27 12:58 UTC.
Position N 40°56' E 028°59'.

; draft 6.8 m.

Type: Ship (hazmat cat A). MMSI: 271001057.

Date/timePositionNaut miles runAvg speedWind from/ knotsBaromVisibWave heightAir tempDewpointWater temp
2017-Apr-25 10:16N 40°56' E 028°59'3 9.2
2017-Apr-25 09:59N 40°54' E 028°56'612.6
2017-Apr-25 09:30N 40°51' E 028°49'8 2.4
2017-Apr-25 06:22N 40°47' E 028°41'0 0.4
2017-Apr-25 06:00N 40°47' E 028°41'0 0.4
2017-Apr-25 05:30N 40°47' E 028°41'0 0.4
2017-Apr-25 05:00N 40°47' E 028°41'0 0.5
2017-Apr-25 04:30N 40°47' E 028°42'1 0.5
2017-Apr-25 03:32N 40°47' E 028°42'0 0.5
2017-Apr-25 03:20N 40°47' E 028°42'0 0.5
2017-Apr-25 03:00N 40°47' E 028°42'0 0.5
2017-Apr-25 02:30N 40°47' E 028°43'0 0.4
2017-Apr-25 02:00N 40°46' E 028°43'0 0.7
2017-Apr-25 01:21N 40°46' E 028°43'410.6
2017-Apr-25 00:57N 40°50' E 028°41'30 1.3
2017-Apr-24 01:22N 40°25' E 029°05'0 1.1
2017-Apr-24 00:56N 40°25' E 029°05'0 0.0
2017-Apr-24 00:26N 40°25' E 029°05'0 0.0
2017-Apr-23 23:56N 40°25' E 029°05'0 0.0
2017-Apr-23 23:26N 40°25' E 029°05'0 0.0
2017-Apr-23 22:50N 40°25' E 029°05'0 0.0
2017-Apr-23 22:20N 40°25' E 029°05'0 0.0
2017-Apr-23 21:44N 40°25' E 029°05'0 0.0
2017-Apr-23 21:26N 40°25' E 029°05'0 0.0
2017-Apr-23 20:56N 40°25' E 029°05'0 0.0
2017-Apr-23 20:26N 40°25' E 029°05'0 0.0
2017-Apr-23 19:44N 40°25' E 029°05'0 0.0
2017-Apr-23 19:26N 40°25' E 029°05'0 0.0
2017-Apr-23 18:56N 40°25' E 029°05'0 0.0
2017-Apr-23 18:20N 40°25' E 029°05'0 0.0
2017-Apr-23 17:56N 40°25' E 029°05'0 0.0
2017-Apr-23 17:08N 40°25' E 029°05'0 0.0
2017-Apr-23 16:56N 40°25' E 029°05'0 0.0
2017-Apr-23 16:26N 40°25' E 029°05'0 0.0
2017-Apr-23 15:56N 40°25' E 029°05'0 0.0
2017-Apr-23 15:26N 40°25' E 029°05'0 0.0
2017-Apr-23 14:56N 40°25' E 029°05'2 2.2
2017-Apr-23 13:57N 40°26' E 029°02'25112.4
2017-Apr-22 17:40N 37°59' E 024°40'214.3
2017-Apr-22 17:30N 37°56' E 024°38'714.4
2017-Apr-22 17:00N 37°50' E 024°36'714.5
2017-Apr-22 16:30N 37°43' E 024°34'47613.9
2017-Apr-21 06:10N 36°23' E 014°46'414.8
2017-Apr-21 05:54N 36°23' E 014°41'614.5
2017-Apr-21 05:29N 36°25' E 014°34'714.9
2017-Apr-21 05:00N 36°28' E 014°26'714.9
2017-Apr-21 04:30N 36°31' E 014°18'714.7
2017-Apr-21 04:00N 36°35' E 014°10'814.9
2017-Apr-21 03:30N 36°39' E 014°02'715.2
2017-Apr-21 03:01N 36°43' E 013°54'815.2
2017-Apr-21 02:30N 36°47' E 013°46'715.0
2017-Apr-21 02:00N 36°51' E 013°38'815.0
2017-Apr-21 01:29N 36°55' E 013°30'22315.1
2017-Apr-20 10:44N 38°55' E 009°31'314.5
2017-Apr-20 10:30N 38°56' E 009°27'814.9
2017-Apr-20 10:00N 39°00' E 009°19'815.0
2017-Apr-20 09:30N 39°05' E 009°11'612.3
2017-Apr-20 09:00N 39°10' E 009°06'3 6.6
2017-Apr-20 08:29N 39°13' E 009°04'0 0.0
2017-Apr-20 07:59N 39°13' E 009°04'0 0.0
2017-Apr-20 07:29N 39°13' E 009°04'0 0.0
2017-Apr-20 06:59N 39°13' E 009°04'0 0.0
2017-Apr-20 06:29N 39°13' E 009°04'0 0.0
2017-Apr-20 05:59N 39°13' E 009°04'0 0.0
2017-Apr-20 05:29N 39°13' E 009°04'0 0.0
2017-Apr-20 04:59N 39°13' E 009°04'0 0.0
2017-Apr-20 04:29N 39°13' E 009°04'0 0.0
2017-Apr-20 03:59N 39°13' E 009°04'0 0.0
2017-Apr-20 03:29N 39°13' E 009°04'0 0.0
2017-Apr-20 02:59N 39°13' E 009°04'0 0.0
2017-Apr-20 02:29N 39°13' E 009°04'0 0.0
2017-Apr-20 01:59N 39°13' E 009°04'0 0.0
2017-Apr-20 01:29N 39°13' E 009°04'0 0.0
2017-Apr-20 00:59N 39°13' E 009°04'0 0.0
2017-Apr-20 00:29N 39°13' E 009°04'0 0.0
2017-Apr-19 23:59N 39°13' E 009°04'0 0.0
2017-Apr-19 23:29N 39°13' E 009°04'0 0.0
2017-Apr-19 22:59N 39°13' E 009°04'0 0.0
2017-Apr-19 22:29N 39°13' E 009°04'0 0.0
2017-Apr-19 21:59N 39°13' E 009°04'0 0.0
2017-Apr-19 21:29N 39°13' E 009°04'0 0.0
2017-Apr-19 20:59N 39°13' E 009°04'0 0.0
2017-Apr-19 20:29N 39°13' E 009°04'0 0.0
2017-Apr-19 19:59N 39°13' E 009°04'0 0.0
2017-Apr-19 19:29N 39°13' E 009°04'0 0.0
2017-Apr-19 18:59N 39°13' E 009°04'0 0.0
2017-Apr-19 18:29N 39°13' E 009°04'0 0.0
2017-Apr-19 17:59N 39°13' E 009°04'0 0.0
2017-Apr-19 17:29N 39°13' E 009°04'2 3.5
2017-Apr-19 17:00N 39°12' E 009°06'4 8.0
2017-Apr-19 16:30N 39°08' E 009°07'3 5.3
2017-Apr-19 16:00N 39°06' E 009°09'0 0.9
2017-Apr-19 15:30N 39°05' E 009°09'0 0.8
2017-Apr-19 15:00N 39°05' E 009°09'1 1.9
2017-Apr-19 14:30N 39°04' E 009°09'1111.0
2017-Apr-19 13:30N 38°55' E 009°01'611.9
2017-Apr-19 13:00N 38°51' E 008°55'612.0
2017-Apr-19 12:29N 38°48' E 008°49'22712.7
2017-Apr-18 18:41N 37°48' E 004°10'213.8
2017-Apr-18 18:30N 37°47' E 004°07'713.9
2017-Apr-18 18:00N 37°45' E 003°59'714.1
2017-Apr-18 17:30N 37°43' E 003°50'714.0
2017-Apr-18 17:00N 37°41' E 003°42'713.9
2017-Apr-18 16:30N 37°39' E 003°33'1614.3
2017-Apr-18 15:23N 37°34' E 003°14'614.4
2017-Apr-18 14:59N 37°33' E 003°07'714.3
2017-Apr-18 14:30N 37°31' E 002°59'1413.8
2017-Apr-18 13:30N 37°27' E 002°42'713.5
2017-Apr-18 13:00N 37°25' E 002°34'713.6
2017-Apr-18 12:29N 37°24' E 002°25'713.9
2017-Apr-18 11:59N 37°22' E 002°17'814.5
2017-Apr-18 11:26N 37°19' E 002°07'714.8
2017-Apr-18 10:59N 37°18' E 001°59'914.9
2017-Apr-18 10:25N 37°15' E 001°49'614.8
2017-Apr-18 09:59N 37°13' E 001°41'715.1
2017-Apr-18 09:30N 37°12' E 001°32'915.2
2017-Apr-18 08:57N 37°09' E 001°22'715.2
2017-Apr-18 08:30N 37°07' E 001°14'815.4
2017-Apr-18 08:00N 37°05' E 001°05'1015.6
2017-Apr-18 07:21N 37°03' E 000°53'515.6
2017-Apr-18 07:00N 37°02' E 000°46'815.6
2017-Apr-18 06:30N 36°60' E 000°37'815.2
2017-Apr-18 06:00N 36°58' E 000°27'714.9
2017-Apr-18 05:30N 36°56' E 000°18'714.7
2017-Apr-18 05:00N 36°54' E 000°09'714.8
2017-Apr-18 04:30N 36°52' E 000°01'814.7
2017-Apr-18 03:59N 36°50' W 000°08'1314.8
2017-Apr-18 03:06N 36°46' W 000°24'215.0
2017-Apr-18 02:58N 36°45' W 000°27'714.9
2017-Apr-18 02:30N 36°43' W 000°35'715.0
2017-Apr-18 02:00N 36°41' W 000°44'815.0
2017-Apr-18 01:30N 36°40' W 000°53'815.1
2017-Apr-18 01:00N 36°38' W 001°02'4114.9
2017-Apr-17 22:13N 36°26' W 001°52'14615.6
2017-Apr-17 12:52N 36°02' W 004°50'615.7
2017-Apr-17 12:28N 36°01' W 004°58'715.6
2017-Apr-17 12:00N 35°60' W 005°06'715.0
2017-Apr-17 11:30N 35°59' W 005°15'714.9
2017-Apr-17 11:00N 35°57' W 005°25'510.5
2017-Apr-17 10:31N 35°54' W 005°30'0 0.6
2017-Apr-17 09:58N 35°54' W 005°29'0 0.0
2017-Apr-17 09:28N 35°54' W 005°29'0 0.0
2017-Apr-17 08:58N 35°54' W 005°29'0 0.0
2017-Apr-17 08:28N 35°54' W 005°29'0 0.0
2017-Apr-17 07:55N 35°54' W 005°29'0 0.0
2017-Apr-17 07:25N 35°54' W 005°29'0 0.0
2017-Apr-17 06:58N 35°54' W 005°29'0 0.0
2017-Apr-17 06:28N 35°54' W 005°29'0 0.0
2017-Apr-17 05:55N 35°54' W 005°29'0 0.0
2017-Apr-17 05:28N 35°54' W 005°29'0 0.0
2017-Apr-17 04:58N 35°54' W 005°29'0 0.0
2017-Apr-17 04:28N 35°54' W 005°29'0 0.0
2017-Apr-17 03:58N 35°54' W 005°29'0 0.0
2017-Apr-17 03:28N 35°54' W 005°29'0 0.0
2017-Apr-17 02:58N 35°54' W 005°29'0 0.0
2017-Apr-17 02:28N 35°54' W 005°29'0 0.0
2017-Apr-17 01:58N 35°54' W 005°29'0 0.0
2017-Apr-17 01:28N 35°54' W 005°29'0 0.0
2017-Apr-17 00:58N 35°54' W 005°29'0 0.0
2017-Apr-17 00:25N 35°54' W 005°29'0 0.0
2017-Apr-16 23:58N 35°54' W 005°29'0 0.0
2017-Apr-16 23:25N 35°54' W 005°29'0 0.0
2017-Apr-16 22:43N 35°54' W 005°29'0 0.0
2017-Apr-16 22:28N 35°54' W 005°29'0 0.0
2017-Apr-16 21:58N 35°54' W 005°29'0 0.0
2017-Apr-16 21:28N 35°54' W 005°29'0 0.0
2017-Apr-16 20:58N 35°54' W 005°29'0 0.0
2017-Apr-16 20:25N 35°54' W 005°29'0 0.0
2017-Apr-16 19:52N 35°54' W 005°29'0 0.0
2017-Apr-16 19:28N 35°54' W 005°29'0 0.0
2017-Apr-16 18:58N 35°54' W 005°29'0 0.0
2017-Apr-16 18:28N 35°54' W 005°29'0 0.0
2017-Apr-16 17:58N 35°54' W 005°29'0 0.0
2017-Apr-16 17:28N 35°54' W 005°29'0 0.8
2017-Apr-16 17:01N 35°54' W 005°30'3 5.9
2017-Apr-16 16:31N 35°54' W 005°33'3 5.7
2017-Apr-16 16:00N 35°52' W 005°36'0 0.3
2017-Apr-16 15:10N 35°52' W 005°36'0 0.0
2017-Apr-16 14:37N 35°52' W 005°36'0 0.1
2017-Apr-16 13:55N 35°52' W 005°36'0 0.1
2017-Apr-16 13:22N 35°52' W 005°36'0 0.0
2017-Apr-16 12:22N 35°52' W 005°36'0 0.1
2017-Apr-16 11:55N 35°52' W 005°36'0 0.1
2017-Apr-16 11:25N 35°52' W 005°36'0 0.0
2017-Apr-16 10:49N 35°52' W 005°36'0 0.1
2017-Apr-16 10:22N 35°52' W 005°36'0 0.2
2017-Apr-16 09:41N 35°52' W 005°36'0 0.9
2017-Apr-16 09:27N 35°52' W 005°36'2 5.2
2017-Apr-16 09:01N 35°54' W 005°34'4 7.8
2017-Apr-16 08:30N 35°54' W 005°39'711.7
2017-Apr-16 07:56N 35°53' W 005°47'5010.8
2017-Apr-16 03:18N 35°16' W 006°27'910.4
2017-Apr-16 02:28N 35°08' W 006°33'1310.6
2017-Apr-16 01:14N 34°56' W 006°39'410.2
2017-Apr-16 00:49N 34°53' W 006°42'410.0
2017-Apr-16 00:25N 34°50' W 006°45'410.4
2017-Apr-15 23:59N 34°46' W 006°48'1510.5
2017-Apr-15 22:34N 34°33' W 006°58'110.3
2017-Apr-15 22:30N 34°33' W 006°58'810.0
2017-Apr-15 21:40N 34°26' W 007°04'3 9.9
2017-Apr-15 21:23N 34°23' W 007°05'410.1
2017-Apr-15 21:00N 34°20' W 007°07'510.2
2017-Apr-15 20:30N 34°15' W 007°10'510.0
2017-Apr-15 20:00N 34°11' W 007°13'510.2
2017-Apr-15 19:30N 34°07' W 007°17'510.0
2017-Apr-15 19:00N 34°02' W 007°20'5 9.9
2017-Apr-15 18:29N 33°58' W 007°23'510.0
2017-Apr-15 18:00N 33°54' W 007°26'5 9.9
2017-Apr-15 17:30N 33°50' W 007°29'14 9.4
2017-Apr-15 16:00N 33°37' W 007°36'  

Dump ship's entire track history